Medenine, Tunisia

11:45 AM CET on September 30, 2014 (GMT +0100)
Zarzis | Change Station
CLOSE
Current Station
Airport
Location: Djerba Mellita,
Elevation: 10 ft
Nearby Weather Stations

Elev 10 ft 33.88 °N, 10.78 °E | Updated 15 minutes ago

Partly Cloudy
Partly Cloudy
82 °F
Feels Like 82 °F
N
10
Wind Variable Wind from NNE

Today
High -- | Low -- °F
--% Chance of Precip.
Yesterday
High -- | Low -- °F
Precip. -- in
6:11 AM 6:04 PM
Waxing Crescent, 35% visible
Pressure 30.24 in
Visibility 6.2 miles
Clouds Few 2000 ft
Heat Index 82 °F
Dew Point 59 °F
Humidity 45%
Rainfall 0.00 in
Snow Depth Not available.
UV 7 out of 12
Pollen Not available.
Air Quality Not available.
Flu Activity Not available.
METAR DTTJ 301030Z 03009KT 9999 FEW020 28/15 Q1024 NOSIG

More Conditions Fewer Conditions

Pressure 30.24 in
Visibility 6.2 miles
Clouds Few 2000 ft
Heat Index 82 °F
Dew Point 59 °F
Humidity 45%
Rainfall 0.00 in
Snow Depth Not available.
UV 7 out of 12
Pollen Not available.
Air Quality Not available.
Flu Activity Not available.
METAR DTTJ 301030Z 03009KT 9999 FEW020 28/15 Q1024 NOSIG

More Conditions Fewer Conditions

10-Day Weather Forecast

Almanac

Astronomy

Sep. 30, 2014 Rise Set
Actual Time 6:11 AM CET 6:04 PM CET
Civil Twilight 5:46 AM CET 6:28 PM CET
Nautical Twilight 5:17 AM CET 6:57 PM CET
Astronomical Twilight 4:49 AM CET 7:26 PM CET
Moon 11:50 AM CET 10:31 PM CET
Length of Visible Light 12h 42m
Length of Day
11h 52m
Tomorrow will be 2m 2s shorter.
Waxing Crescent, 35% of the Moon is Illuminated
Today
Waxing Crescent
Oct 1
First Quarter
Oct 8
Full
Oct 15
Last Quarter
Oct 23
New

Yesterday's Extremes

Country Highs Country Lows

Community

WunderPhotos

Upload Photos

1,757,609 photos uploaded!

WunderBlogs® & News

Nearby

Snow Depth

Not available.

Earthquake Activity

City Distance Mag. Time & Date
No recent earthquake activity has been reported nearby.
Minimum magnitude displayed is 2.5.

Coastal Water Temperatures

Place Temperature
No Stations Reporting

Nearby Weather Stations